sensor_id;sensor_type;location;lat;lon;timestamp;P1;durP1;ratioP1;P2;durP2;ratioP2
76094;SDS011;64821;13.710;100.604;2023-09-19T00:26:38;11.07;;;6.68;;
76094;SDS011;64821;13.710;100.604;2023-09-19T00:27:42;9.80;;;6.50;;
76094;SDS011;64821;13.710;100.604;2023-09-19T00:28:46;10.77;;;7.43;;
76094;SDS011;64821;13.710;100.604;2023-09-19T00:29:50;12.63;;;8.60;;
76094;SDS011;64821;13.710;100.604;2023-09-19T00:30:53;11.27;;;7.40;;
76094;SDS011;64821;13.710;100.604;2023-09-19T00:31:57;12.63;;;7.97;;
76094;SDS011;64821;13.710;100.604;2023-09-19T00:33:01;11.38;;;7.43;;
76094;SDS011;64821;13.710;100.604;2023-09-19T00:34:05;11.57;;;7.93;;
76094;SDS011;64821;13.710;100.604;2023-09-19T00:35:09;13.18;;;8.52;;
76094;SDS011;64821;13.710;100.604;2023-09-19T00:36:12;11.00;;;7.50;;
76094;SDS011;64821;13.710;100.604;2023-09-19T00:37:16;12.27;;;8.40;;
76094;SDS011;64821;13.710;100.604;2023-09-19T00:38:20;12.15;;;8.15;;
76094;SDS011;64821;13.710;100.604;2023-09-19T00:39:25;13.37;;;8.27;;
76094;SDS011;64821;13.710;100.604;2023-09-19T00:40:29;12.05;;;8.35;;
76094;SDS011;64821;13.710;100.604;2023-09-19T00:41:32;12.57;;;8.73;;
76094;SDS011;64821;13.710;100.604;2023-09-19T00:42:38;13.05;;;8.80;;
76094;SDS011;64821;13.710;100.604;2023-09-19T00:43:42;12.50;;;8.45;;
76094;SDS011;64821;13.710;100.604;2023-09-19T00:44:46;11.93;;;7.87;;
76094;SDS011;64821;13.710;100.604;2023-09-19T00:45:50;15.43;;;9.73;;
76094;SDS011;64821;13.710;100.604;2023-09-19T00:46:55;15.15;;;10.93;;
76094;SDS011;64821;13.710;100.604;2023-09-19T00:47:59;16.60;;;12.23;;
76094;SDS011;64821;13.710;100.604;2023-09-19T00:49:05;17.25;;;11.48;;
76094;SDS011;64821;13.710;100.604;2023-09-19T00:50:11;14.47;;;10.50;;
76094;SDS011;64821;13.710;100.604;2023-09-19T00:51:17;15.52;;;10.23;;
76094;SDS011;64821;13.710;100.604;2023-09-19T00:52:22;15.50;;;10.38;;
76094;SDS011;64821;13.710;100.604;2023-09-19T00:53:27;15.38;;;10.93;;
76094;SDS011;64821;13.710;100.604;2023-09-19T00:54:31;16.13;;;10.85;;
76094;SDS011;64821;13.710;100.604;2023-09-19T00:55:36;18.57;;;12.23;;
76094;SDS011;64821;13.710;100.604;2023-09-19T00:56:40;16.17;;;11.75;;
76094;SDS011;64821;13.710;100.604;2023-09-19T00:57:45;16.63;;;11.40;;
76094;SDS011;64821;13.710;100.604;2023-09-19T00:58:50;15.65;;;10.90;;
76094;SDS011;64821;13.710;100.604;2023-09-19T00:59:54;16.77;;;12.57;;
76094;SDS011;64821;13.710;100.604;2023-09-19T01:00:59;15.60;;;11.70;;
76094;SDS011;64821;13.710;100.604;2023-09-19T01:02:03;15.90;;;11.52;;
76094;SDS011;64821;13.710;100.604;2023-09-19T01:03:07;13.88;;;11.15;;
76094;SDS011;64821;13.710;100.604;2023-09-19T01:04:12;16.52;;;11.25;;
76094;SDS011;64821;13.710;100.604;2023-09-19T01:05:16;16.23;;;11.38;;
76094;SDS011;64821;13.710;100.604;2023-09-19T01:06:19;15.60;;;11.10;;
76094;SDS011;64821;13.710;100.604;2023-09-19T01:07:24;19.45;;;12.55;;
76094;SDS011;64821;13.710;100.604;2023-09-19T01:08:28;16.13;;;10.68;;
76094;SDS011;64821;13.710;100.604;2023-09-19T01:09:32;14.02;;;10.43;;
76094;SDS011;64821;13.710;100.604;2023-09-19T01:10:35;15.35;;;10.32;;
76094;SDS011;64821;13.710;100.604;2023-09-19T01:11:45;17.00;;;10.93;;
76094;SDS011;64821;13.710;100.604;2023-09-19T01:12:54;13.50;;;9.48;;
76094;SDS011;64821;13.710;100.604;2023-09-19T01:14:06;14.70;;;9.38;;
76094;SDS011;64821;13.710;100.604;2023-09-19T01:15:21;17.88;;;11.35;;
76094;SDS011;64821;13.710;100.604;2023-09-19T01:16:36;14.15;;;9.13;;
76094;SDS011;64821;13.710;100.604;2023-09-19T01:17:49;13.03;;;8.63;;
76094;SDS011;64821;13.710;100.604;2023-09-19T01:19:04;14.75;;;9.77;;
76094;SDS011;64821;13.710;100.604;2023-09-19T01:20:26;14.95;;;9.13;;
76094;SDS011;64821;13.710;100.604;2023-09-19T01:21:37;15.25;;;10.50;;
76094;SDS011;64821;13.710;100.604;2023-09-19T01:23:03;14.88;;;9.40;;
76094;SDS011;64821;13.710;100.604;2023-09-19T01:24:22;14.57;;;8.90;;
76094;SDS011;64821;13.710;100.604;2023-09-19T01:26:05;13.70;;;9.50;;
76094;SDS011;64821;13.710;100.604;2023-09-19T01:27:18;14.15;;;9.15;;
76094;SDS011;64821;13.710;100.604;2023-09-19T01:28:45;13.07;;;8.90;;
76094;SDS011;64821;13.710;100.604;2023-09-19T01:30:06;13.20;;;8.57;;
76094;SDS011;64821;13.710;100.604;2023-09-19T01:31:12;14.23;;;8.40;;
76094;SDS011;64821;13.710;100.604;2023-09-19T01:32:18;10.50;;;7.30;;
76094;SDS011;64821;13.710;100.604;2023-09-19T01:33:24;11.88;;;7.70;;
76094;SDS011;64821;13.710;100.604;2023-09-19T01:34:28;11.68;;;7.00;;
76094;SDS011;64821;13.710;100.604;2023-09-19T01:35:47;10.43;;;6.38;;
76094;SDS011;64821;13.710;100.604;2023-09-19T01:36:50;10.77;;;6.23;;
76094;SDS011;64821;13.710;100.604;2023-09-19T01:37:54;9.63;;;6.30;;
76094;SDS011;64821;13.710;100.604;2023-09-19T01:38:58;10.05;;;6.20;;
76094;SDS011;64821;13.710;100.604;2023-09-19T01:40:03;12.15;;;6.93;;
76094;SDS011;64821;13.710;100.604;2023-09-19T01:42:35;12.10;;;7.63;;
76094;SDS011;64821;13.710;100.604;2023-09-19T01:43:42;10.88;;;7.10;;
76094;SDS011;64821;13.710;100.604;2023-09-19T01:44:51;10.95;;;7.35;;
76094;SDS011;64821;13.710;100.604;2023-09-19T01:46:04;10.35;;;6.00;;
76094;SDS011;64821;13.710;100.604;2023-09-19T01:47:13;11.68;;;6.53;;
76094;SDS011;64821;13.710;100.604;2023-09-19T01:48:24;10.70;;;6.60;;
76094;SDS011;64821;13.710;100.604;2023-09-19T01:49:40;11.13;;;6.82;;
76094;SDS011;64821;13.710;100.604;2023-09-19T01:50:52;9.43;;;6.45;;
76094;SDS011;64821;13.710;100.604;2023-09-19T01:52:03;10.68;;;7.35;;
76094;SDS011;64821;13.710;100.604;2023-09-19T01:53:15;10.00;;;6.43;;
76094;SDS011;64821;13.710;100.604;2023-09-19T01:54:26;10.67;;;6.90;;
76094;SDS011;64821;13.710;100.604;2023-09-19T01:55:38;10.00;;;6.40;;
76094;SDS011;64821;13.710;100.604;2023-09-19T01:56:48;10.25;;;6.55;;
76094;SDS011;64821;13.710;100.604;2023-09-19T01:58:00;11.13;;;6.80;;
76094;SDS011;64821;13.710;100.604;2023-09-19T01:59:10;11.35;;;7.13;;
76094;SDS011;64821;13.710;100.604;2023-09-19T02:00:16;10.97;;;7.37;;
76094;SDS011;64821;13.710;100.604;2023-09-19T02:01:26;10.18;;;6.32;;
76094;SDS011;64821;13.710;100.604;2023-09-19T02:02:31;11.68;;;7.40;;
76094;SDS011;64821;13.710;100.604;2023-09-19T02:03:36;10.18;;;6.53;;
76094;SDS011;64821;13.710;100.604;2023-09-19T02:04:41;11.00;;;6.47;;
76094;SDS011;64821;13.710;100.604;2023-09-19T02:05:48;9.40;;;6.27;;
76094;SDS011;64821;13.710;100.604;2023-09-19T02:06:52;9.65;;;6.15;;
76094;SDS011;64821;13.710;100.604;2023-09-19T02:07:56;9.43;;;6.53;;
76094;SDS011;64821;13.710;100.604;2023-09-19T02:09:00;9.10;;;6.40;;
76094;SDS011;64821;13.710;100.604;2023-09-19T02:10:05;10.48;;;6.60;;
76094;SDS011;64821;13.710;100.604;2023-09-19T02:11:09;8.57;;;5.70;;
76094;SDS011;64821;13.710;100.604;2023-09-19T02:12:13;11.02;;;6.07;;
76094;SDS011;64821;13.710;100.604;2023-09-19T02:13:17;10.25;;;6.10;;
76094;SDS011;64821;13.710;100.604;2023-09-19T02:14:22;8.75;;;5.85;;
76094;SDS011;64821;13.710;100.604;2023-09-19T02:15:26;9.80;;;5.90;;
76094;SDS011;64821;13.710;100.604;2023-09-19T02:16:32;8.37;;;5.57;;
76094;SDS011;64821;13.710;100.604;2023-09-19T02:17:35;9.98;;;5.72;;
76094;SDS011;64821;13.710;100.604;2023-09-19T02:18:39;9.50;;;5.38;;
76094;SDS011;64821;13.710;100.604;2023-09-19T02:19:43;8.52;;;5.63;;
76094;SDS011;64821;13.710;100.604;2023-09-19T02:20:47;11.15;;;5.95;;
76094;SDS011;64821;13.710;100.604;2023-09-19T02:21:51;9.70;;;5.90;;
76094;SDS011;64821;13.710;100.604;2023-09-19T02:22:54;10.32;;;6.05;;
76094;SDS011;64821;13.710;100.604;2023-09-19T02:23:58;8.65;;;5.13;;
76094;SDS011;64821;13.710;100.604;2023-09-19T02:25:02;8.98;;;5.03;;
76094;SDS011;64821;13.710;100.604;2023-09-19T02:26:09;9.07;;;5.55;;
76094;SDS011;64821;13.710;100.604;2023-09-19T02:27:13;8.70;;;5.23;;
76094;SDS011;64821;13.710;100.604;2023-09-19T02:28:16;8.48;;;4.90;;
76094;SDS011;64821;13.710;100.604;2023-09-19T02:29:20;10.25;;;5.50;;
76094;SDS011;64821;13.710;100.604;2023-09-19T02:30:24;7.90;;;5.10;;
76094;SDS011;64821;13.710;100.604;2023-09-19T02:31:28;8.93;;;5.30;;
76094;SDS011;64821;13.710;100.604;2023-09-19T02:32:34;8.90;;;5.10;;
76094;SDS011;64821;13.710;100.604;2023-09-19T02:33:37;10.18;;;5.47;;
76094;SDS011;64821;13.710;100.604;2023-09-19T02:34:42;9.48;;;5.80;;
76094;SDS011;64821;13.710;100.604;2023-09-19T02:35:47;9.15;;;5.65;;
76094;SDS011;64821;13.710;100.604;2023-09-19T02:36:51;9.80;;;5.40;;
76094;SDS011;64821;13.710;100.604;2023-09-19T02:37:54;8.70;;;5.10;;
76094;SDS011;64821;13.710;100.604;2023-09-19T02:38:58;8.23;;;5.10;;
76094;SDS011;64821;13.710;100.604;2023-09-19T02:40:02;8.75;;;5.40;;
76094;SDS011;64821;13.710;100.604;2023-09-19T02:41:07;9.20;;;5.60;;
76094;SDS011;64821;13.710;100.604;2023-09-19T02:42:10;9.30;;;5.00;;
76094;SDS011;64821;13.710;100.604;2023-09-19T02:43:14;10.00;;;5.17;;
76094;SDS011;64821;13.710;100.604;2023-09-19T02:44:18;9.00;;;5.47;;
76094;SDS011;64821;13.710;100.604;2023-09-19T02:45:22;8.20;;;5.10;;
76094;SDS011;64821;13.710;100.604;2023-09-19T02:46:26;9.98;;;5.20;;
76094;SDS011;64821;13.710;100.604;2023-09-19T02:47:30;8.15;;;5.07;;
76094;SDS011;64821;13.710;100.604;2023-09-19T02:48:36;8.87;;;5.07;;
76094;SDS011;64821;13.710;100.604;2023-09-19T02:49:40;8.30;;;4.72;;
76094;SDS011;64821;13.710;100.604;2023-09-19T02:50:43;8.27;;;4.80;;
76094;SDS011;64821;13.710;100.604;2023-09-19T02:51:47;8.77;;;5.65;;
76094;SDS011;64821;13.710;100.604;2023-09-19T02:52:51;9.27;;;5.07;;
76094;SDS011;64821;13.710;100.604;2023-09-19T02:53:55;9.37;;;4.83;;
76094;SDS011;64821;13.710;100.604;2023-09-19T02:54:59;7.55;;;4.68;;
76094;SDS011;64821;13.710;100.604;2023-09-19T02:56:03;8.80;;;4.60;;
76094;SDS011;64821;13.710;100.604;2023-09-19T02:57:07;7.55;;;4.47;;
76094;SDS011;64821;13.710;100.604;2023-09-19T02:58:11;8.07;;;4.43;;
76094;SDS011;64821;13.710;100.604;2023-09-19T02:59:15;7.67;;;4.67;;
76094;SDS011;64821;13.710;100.604;2023-09-19T03:00:19;10.52;;;5.00;;
76094;SDS011;64821;13.710;100.604;2023-09-19T03:01:23;8.13;;;4.43;;
76094;SDS011;64821;13.710;100.604;2023-09-19T03:02:28;7.28;;;4.10;;
76094;SDS011;64821;13.710;100.604;2023-09-19T03:03:32;7.97;;;4.47;;
76094;SDS011;64821;13.710;100.604;2023-09-19T03:04:37;9.23;;;4.47;;
76094;SDS011;64821;13.710;100.604;2023-09-19T03:05:41;7.65;;;4.38;;
76094;SDS011;64821;13.710;100.604;2023-09-19T03:06:45;7.78;;;4.47;;
76094;SDS011;64821;13.710;100.604;2023-09-19T03:07:49;8.18;;;4.88;;
76094;SDS011;64821;13.710;100.604;2023-09-19T03:08:53;7.88;;;4.60;;
76094;SDS011;64821;13.710;100.604;2023-09-19T03:09:57;7.90;;;4.27;;
76094;SDS011;64821;13.710;100.604;2023-09-19T03:11:01;9.68;;;4.43;;
76094;SDS011;64821;13.710;100.604;2023-09-19T03:12:06;8.23;;;4.10;;
76094;SDS011;64821;13.710;100.604;2023-09-19T03:13:10;7.45;;;3.67;;
76094;SDS011;64821;13.710;100.604;2023-09-19T03:14:14;7.80;;;3.58;;
76094;SDS011;64821;13.710;100.604;2023-09-19T03:15:18;7.97;;;3.37;;
76094;SDS011;64821;13.710;100.604;2023-09-19T03:16:21;6.80;;;3.47;;
76094;SDS011;64821;13.710;100.604;2023-09-19T03:17:25;6.50;;;3.20;;
76094;SDS011;64821;13.710;100.604;2023-09-19T03:18:29;6.43;;;3.08;;
76094;SDS011;64821;13.710;100.604;2023-09-19T03:19:33;6.60;;;2.97;;
76094;SDS011;64821;13.710;100.604;2023-09-19T03:20:39;6.37;;;3.37;;
76094;SDS011;64821;13.710;100.604;2023-09-19T03:21:43;6.93;;;3.30;;
76094;SDS011;64821;13.710;100.604;2023-09-19T03:22:46;6.38;;;2.78;;
76094;SDS011;64821;13.710;100.604;2023-09-19T03:23:50;6.82;;;3.00;;
76094;SDS011;64821;13.710;100.604;2023-09-19T03:24:54;6.50;;;2.83;;
76094;SDS011;64821;13.710;100.604;2023-09-19T03:25:58;6.60;;;2.83;;
76094;SDS011;64821;13.710;100.604;2023-09-19T03:27:02;6.75;;;2.92;;
76094;SDS011;64821;13.710;100.604;2023-09-19T03:28:06;6.80;;;2.70;;
76094;SDS011;64821;13.710;100.604;2023-09-19T03:29:10;6.43;;;2.90;;
76094;SDS011;64821;13.710;100.604;2023-09-19T03:30:14;6.57;;;3.03;;
76094;SDS011;64821;13.710;100.604;2023-09-19T03:31:18;7.77;;;2.87;;
76094;SDS011;64821;13.710;100.604;2023-09-19T03:32:22;5.65;;;2.50;;
76094;SDS011;64821;13.710;100.604;2023-09-19T03:33:26;6.15;;;2.65;;
76094;SDS011;64821;13.710;100.604;2023-09-19T03:34:30;6.65;;;2.30;;
76094;SDS011;64821;13.710;100.604;2023-09-19T03:35:33;5.60;;;2.20;;
76094;SDS011;64821;13.710;100.604;2023-09-19T03:36:39;6.37;;;2.50;;
76094;SDS011;64821;13.710;100.604;2023-09-19T03:37:43;5.68;;;2.28;;
76094;SDS011;64821;13.710;100.604;2023-09-19T03:38:47;5.68;;;2.20;;
76094;SDS011;64821;13.710;100.604;2023-09-19T03:39:51;5.10;;;2.05;;
76094;SDS011;64821;13.710;100.604;2023-09-19T03:40:55;5.85;;;2.05;;
76094;SDS011;64821;13.710;100.604;2023-09-19T03:41:59;6.73;;;2.10;;
76094;SDS011;64821;13.710;100.604;2023-09-19T03:43:03;6.15;;;2.30;;
76094;SDS011;64821;13.710;100.604;2023-09-19T03:44:07;5.97;;;2.28;;
76094;SDS011;64821;13.710;100.604;2023-09-19T03:45:11;6.30;;;2.03;;
76094;SDS011;64821;13.710;100.604;2023-09-19T03:46:15;6.53;;;2.20;;
76094;SDS011;64821;13.710;100.604;2023-09-19T03:47:19;6.40;;;2.10;;
76094;SDS011;64821;13.710;100.604;2023-09-19T03:48:29;5.53;;;2.15;;
76094;SDS011;64821;13.710;100.604;2023-09-19T03:49:33;5.82;;;1.98;;
76094;SDS011;64821;13.710;100.604;2023-09-19T03:50:36;5.40;;;1.92;;
76094;SDS011;64821;13.710;100.604;2023-09-19T03:51:42;5.28;;;1.90;;
76094;SDS011;64821;13.710;100.604;2023-09-19T03:52:46;5.10;;;1.90;;
76094;SDS011;64821;13.710;100.604;2023-09-19T03:53:50;5.18;;;1.90;;
76094;SDS011;64821;13.710;100.604;2023-09-19T03:54:53;5.50;;;1.80;;
76094;SDS011;64821;13.710;100.604;2023-09-19T03:55:57;5.75;;;2.10;;
76094;SDS011;64821;13.710;100.604;2023-09-19T03:57:01;6.20;;;2.08;;
76094;SDS011;64821;13.710;100.604;2023-09-19T03:58:05;4.90;;;1.60;;
76094;SDS011;64821;13.710;100.604;2023-09-19T03:59:09;5.85;;;1.85;;
76094;SDS011;64821;13.710;100.604;2023-09-19T04:00:18;5.57;;;1.83;;
76094;SDS011;64821;13.710;100.604;2023-09-19T04:01:22;5.22;;;1.63;;
76094;SDS011;64821;13.710;100.604;2023-09-19T04:02:26;5.88;;;1.90;;
76094;SDS011;64821;13.710;100.604;2023-09-19T04:03:30;5.10;;;1.73;;
76094;SDS011;64821;13.710;100.604;2023-09-19T04:04:34;5.28;;;2.00;;
76094;SDS011;64821;13.710;100.604;2023-09-19T04:05:38;5.47;;;1.80;;
76094;SDS011;64821;13.710;100.604;2023-09-19T04:06:43;5.40;;;1.80;;
76094;SDS011;64821;13.710;100.604;2023-09-19T04:07:47;6.22;;;1.67;;
76094;SDS011;64821;13.710;100.604;2023-09-19T04:08:51;5.00;;;1.60;;
76094;SDS011;64821;13.710;100.604;2023-09-19T04:09:55;5.10;;;1.80;;
76094;SDS011;64821;13.710;100.604;2023-09-19T04:10:59;5.20;;;1.90;;
76094;SDS011;64821;13.710;100.604;2023-09-19T04:12:03;4.97;;;1.70;;
76094;SDS011;64821;13.710;100.604;2023-09-19T04:13:07;5.28;;;1.83;;
76094;SDS011;64821;13.710;100.604;2023-09-19T04:14:11;5.20;;;1.80;;
76094;SDS011;64821;13.710;100.604;2023-09-19T04:15:15;5.10;;;1.60;;
76094;SDS011;64821;13.710;100.604;2023-09-19T04:16:19;5.18;;;1.77;;
76094;SDS011;64821;13.710;100.604;2023-09-19T04:17:23;5.88;;;1.52;;
76094;SDS011;64821;13.710;100.604;2023-09-19T04:18:27;5.65;;;2.05;;
76094;SDS011;64821;13.710;100.604;2023-09-19T04:19:31;5.40;;;1.73;;
76094;SDS011;64821;13.710;100.604;2023-09-19T04:20:35;5.13;;;1.90;;
76094;SDS011;64821;13.710;100.604;2023-09-19T04:21:39;6.40;;;2.10;;
76094;SDS011;64821;13.710;100.604;2023-09-19T04:22:44;5.50;;;2.13;;
76094;SDS011;64821;13.710;100.604;2023-09-19T04:23:48;5.60;;;1.88;;
76094;SDS011;64821;13.710;100.604;2023-09-19T04:24:52;5.30;;;1.90;;
76094;SDS011;64821;13.710;100.604;2023-09-19T04:25:56;6.45;;;1.95;;
76094;SDS011;64821;13.710;100.604;2023-09-19T04:27:00;6.13;;;2.10;;
76094;SDS011;64821;13.710;100.604;2023-09-19T04:28:04;6.43;;;1.80;;
76094;SDS011;64821;13.710;100.604;2023-09-19T04:29:08;5.90;;;2.00;;
76094;SDS011;64821;13.710;100.604;2023-09-19T04:30:12;6.33;;;1.97;;
76094;SDS011;64821;13.710;100.604;2023-09-19T04:31:16;5.72;;;1.98;;
76094;SDS011;64821;13.710;100.604;2023-09-19T04:32:19;5.45;;;1.90;;
76094;SDS011;64821;13.710;100.604;2023-09-19T04:33:23;5.18;;;1.90;;
76094;SDS011;64821;13.710;100.604;2023-09-19T04:34:28;5.90;;;1.90;;
76094;SDS011;64821;13.710;100.604;2023-09-19T04:35:32;7.47;;;2.10;;
76094;SDS011;64821;13.710;100.604;2023-09-19T04:36:36;5.25;;;1.90;;
76094;SDS011;64821;13.710;100.604;2023-09-19T04:37:40;5.32;;;1.70;;
76094;SDS011;64821;13.710;100.604;2023-09-19T04:38:46;5.15;;;1.73;;
76094;SDS011;64821;13.710;100.604;2023-09-19T04:39:50;5.43;;;1.90;;
76094;SDS011;64821;13.710;100.604;2023-09-19T04:40:58;5.00;;;1.80;;
76094;SDS011;64821;13.710;100.604;2023-09-19T04:42:02;4.63;;;1.70;;
76094;SDS011;64821;13.710;100.604;2023-09-19T04:43:07;5.47;;;1.60;;
76094;SDS011;64821;13.710;100.604;2023-09-19T04:44:21;5.55;;;2.00;;
76094;SDS011;64821;13.710;100.604;2023-09-19T04:45:31;5.07;;;1.80;;
76094;SDS011;64821;13.710;100.604;2023-09-19T04:46:34;5.33;;;1.90;;
76094;SDS011;64821;13.710;100.604;2023-09-19T04:47:39;5.60;;;1.80;;
76094;SDS011;64821;13.710;100.604;2023-09-19T04:48:43;6.68;;;2.08;;
76094;SDS011;64821;13.710;100.604;2023-09-19T04:49:46;6.10;;;2.00;;
76094;SDS011;64821;13.710;100.604;2023-09-19T04:50:51;5.50;;;2.05;;
76094;SDS011;64821;13.710;100.604;2023-09-19T04:51:54;5.83;;;1.80;;
76094;SDS011;64821;13.710;100.604;2023-09-19T04:52:58;5.30;;;1.90;;
76094;SDS011;64821;13.710;100.604;2023-09-19T04:54:04;6.03;;;1.85;;
76094;SDS011;64821;13.710;100.604;2023-09-19T04:55:09;5.47;;;2.00;;
76094;SDS011;64821;13.710;100.604;2023-09-19T04:56:13;5.70;;;1.50;;
76094;SDS011;64821;13.710;100.604;2023-09-19T04:57:18;5.00;;;1.70;;
76094;SDS011;64821;13.710;100.604;2023-09-19T04:58:22;4.75;;;1.75;;
76094;SDS011;64821;13.710;100.604;2023-09-19T04:59:26;5.18;;;1.90;;
76094;SDS011;64821;13.710;100.604;2023-09-19T05:00:29;5.00;;;1.75;;
76094;SDS011;64821;13.710;100.604;2023-09-19T05:01:34;5.30;;;1.80;;
76094;SDS011;64821;13.710;100.604;2023-09-19T05:02:37;5.20;;;1.70;;
76094;SDS011;64821;13.710;100.604;2023-09-19T05:03:42;5.25;;;1.85;;
76094;SDS011;64821;13.710;100.604;2023-09-19T05:04:45;5.97;;;1.98;;
76094;SDS011;64821;13.710;100.604;2023-09-19T05:05:50;5.30;;;1.60;;
76094;SDS011;64821;13.710;100.604;2023-09-19T05:06:53;5.10;;;1.90;;
76094;SDS011;64821;13.710;100.604;2023-09-19T05:07:57;5.47;;;1.70;;
76094;SDS011;64821;13.710;100.604;2023-09-19T05:09:01;5.13;;;1.75;;
76094;SDS011;64821;13.710;100.604;2023-09-19T05:10:08;6.60;;;2.03;;
76094;SDS011;64821;13.710;100.604;2023-09-19T05:11:12;5.85;;;2.10;;
76094;SDS011;64821;13.710;100.604;2023-09-19T05:12:16;5.63;;;2.13;;
76094;SDS011;64821;13.710;100.604;2023-09-19T05:13:19;6.10;;;1.80;;
76094;SDS011;64821;13.710;100.604;2023-09-19T05:14:23;6.28;;;2.10;;
76094;SDS011;64821;13.710;100.604;2023-09-19T05:15:27;5.45;;;2.08;;
76094;SDS011;64821;13.710;100.604;2023-09-19T05:16:31;5.38;;;1.73;;
76094;SDS011;64821;13.710;100.604;2023-09-19T05:17:35;5.75;;;2.33;;
76094;SDS011;64821;13.710;100.604;2023-09-19T05:18:39;5.83;;;2.13;;
76094;SDS011;64821;13.710;100.604;2023-09-19T05:19:42;5.63;;;2.13;;
76094;SDS011;64821;13.710;100.604;2023-09-19T05:20:46;5.72;;;2.33;;
76094;SDS011;64821;13.710;100.604;2023-09-19T05:21:50;5.70;;;1.90;;
76094;SDS011;64821;13.710;100.604;2023-09-19T05:22:57;5.80;;;2.28;;
76094;SDS011;64821;13.710;100.604;2023-09-19T05:24:02;5.73;;;2.10;;
76094;SDS011;64821;13.710;100.604;2023-09-19T05:25:08;6.47;;;2.55;;
76094;SDS011;64821;13.710;100.604;2023-09-19T05:26:12;5.43;;;2.03;;
76094;SDS011;64821;13.710;100.604;2023-09-19T05:27:16;5.32;;;1.95;;
76094;SDS011;64821;13.710;100.604;2023-09-19T05:28:20;5.40;;;2.00;;
76094;SDS011;64821;13.710;100.604;2023-09-19T05:29:24;5.00;;;1.93;;
76094;SDS011;64821;13.710;100.604;2023-09-19T05:30:27;6.45;;;2.05;;
76094;SDS011;64821;13.710;100.604;2023-09-19T05:31:34;6.60;;;1.80;;
76094;SDS011;64821;13.710;100.604;2023-09-19T05:32:43;5.05;;;1.90;;
76094;SDS011;64821;13.710;100.604;2023-09-19T05:33:47;5.60;;;2.22;;
76094;SDS011;64821;13.710;100.604;2023-09-19T05:34:51;5.73;;;2.10;;
76094;SDS011;64821;13.710;100.604;2023-09-19T05:35:55;6.28;;;1.88;;
76094;SDS011;64821;13.710;100.604;2023-09-19T05:36:58;5.40;;;1.90;;
76094;SDS011;64821;13.710;100.604;2023-09-19T05:38:02;5.30;;;1.88;;
76094;SDS011;64821;13.710;100.604;2023-09-19T05:39:06;6.43;;;1.88;;
76094;SDS011;64821;13.710;100.604;2023-09-19T05:40:14;5.50;;;2.00;;
76094;SDS011;64821;13.710;100.604;2023-09-19T05:41:18;6.25;;;2.17;;
76094;SDS011;64821;13.710;100.604;2023-09-19T05:42:22;6.63;;;2.22;;
76094;SDS011;64821;13.710;100.604;2023-09-19T05:43:25;5.68;;;2.00;;
76094;SDS011;64821;13.710;100.604;2023-09-19T05:44:29;5.70;;;2.00;;
76094;SDS011;64821;13.710;100.604;2023-09-19T05:45:33;5.77;;;2.00;;
76094;SDS011;64821;13.710;100.604;2023-09-19T05:46:37;5.70;;;2.10;;
76094;SDS011;64821;13.710;100.604;2023-09-19T05:47:41;5.65;;;2.20;;
76094;SDS011;64821;13.710;100.604;2023-09-19T05:48:45;6.05;;;2.17;;
76094;SDS011;64821;13.710;100.604;2023-09-19T05:49:50;5.80;;;2.08;;
76094;SDS011;64821;13.710;100.604;2023-09-19T05:50:54;5.73;;;1.87;;
76094;SDS011;64821;13.710;100.604;2023-09-19T05:51:57;6.38;;;2.13;;
76094;SDS011;64821;13.710;100.604;2023-09-19T05:53:01;5.78;;;1.92;;
76094;SDS011;64821;13.710;100.604;2023-09-19T05:54:05;6.20;;;2.08;;
76094;SDS011;64821;13.710;100.604;2023-09-19T05:55:09;5.60;;;2.17;;
76094;SDS011;64821;13.710;100.604;2023-09-19T05:56:14;5.10;;;2.10;;
76094;SDS011;64821;13.710;100.604;2023-09-19T05:57:18;5.40;;;1.90;;
76094;SDS011;64821;13.710;100.604;2023-09-19T05:58:22;7.22;;;1.98;;
76094;SDS011;64821;13.710;100.604;2023-09-19T05:59:29;6.43;;;2.15;;
76094;SDS011;64821;13.710;100.604;2023-09-19T06:00:33;5.90;;;2.40;;
76094;SDS011;64821;13.710;100.604;2023-09-19T06:01:42;5.20;;;2.00;;
76094;SDS011;64821;13.710;100.604;2023-09-19T06:02:48;5.38;;;2.15;;
76094;SDS011;64821;13.710;100.604;2023-09-19T06:03:53;5.85;;;2.15;;
76094;SDS011;64821;13.710;100.604;2023-09-19T06:04:57;5.57;;;2.13;;
76094;SDS011;64821;13.710;100.604;2023-09-19T06:06:01;5.32;;;2.25;;
76094;SDS011;64821;13.710;100.604;2023-09-19T06:07:05;5.70;;;2.40;;
76094;SDS011;64821;13.710;100.604;2023-09-19T06:08:08;5.43;;;2.00;;
76094;SDS011;64821;13.710;100.604;2023-09-19T06:09:12;6.18;;;2.30;;
76094;SDS011;64821;13.710;100.604;2023-09-19T06:10:16;5.57;;;2.17;;
76094;SDS011;64821;13.710;100.604;2023-09-19T06:11:22;5.13;;;2.10;;
76094;SDS011;64821;13.710;100.604;2023-09-19T06:12:25;6.03;;;2.10;;
76094;SDS011;64821;13.710;100.604;2023-09-19T06:13:29;5.13;;;1.98;;
76094;SDS011;64821;13.710;100.604;2023-09-19T06:14:33;6.65;;;2.50;;
76094;SDS011;64821;13.710;100.604;2023-09-19T06:15:37;5.28;;;2.00;;
76094;SDS011;64821;13.710;100.604;2023-09-19T06:16:41;5.05;;;2.10;;
76094;SDS011;64821;13.710;100.604;2023-09-19T06:17:46;5.80;;;2.20;;
76094;SDS011;64821;13.710;100.604;2023-09-19T06:18:51;6.30;;;2.00;;
76094;SDS011;64821;13.710;100.604;2023-09-19T06:19:54;6.80;;;2.40;;
76094;SDS011;64821;13.710;100.604;2023-09-19T06:20:58;5.35;;;2.03;;
76094;SDS011;64821;13.710;100.604;2023-09-19T06:22:03;5.32;;;2.00;;
76094;SDS011;64821;13.710;100.604;2023-09-19T06:23:07;6.23;;;2.40;;
76094;SDS011;64821;13.710;100.604;2023-09-19T06:24:11;5.10;;;2.10;;
76094;SDS011;64821;13.710;100.604;2023-09-19T06:25:15;6.32;;;2.40;;
76094;SDS011;64821;13.710;100.604;2023-09-19T06:26:19;6.88;;;2.40;;
76094;SDS011;64821;13.710;100.604;2023-09-19T06:27:25;5.55;;;2.10;;
76094;SDS011;64821;13.710;100.604;2023-09-19T06:28:29;5.63;;;2.27;;
76094;SDS011;64821;13.710;100.604;2023-09-19T06:29:33;7.10;;;2.33;;
76094;SDS011;64821;13.710;100.604;2023-09-19T06:30:37;5.90;;;2.03;;
76094;SDS011;64821;13.710;100.604;2023-09-19T06:31:41;5.75;;;2.45;;
76094;SDS011;64821;13.710;100.604;2023-09-19T06:32:45;6.10;;;2.22;;
76094;SDS011;64821;13.710;100.604;2023-09-19T06:33:49;5.50;;;2.13;;
76094;SDS011;64821;13.710;100.604;2023-09-19T06:34:53;6.20;;;2.38;;
76094;SDS011;64821;13.710;100.604;2023-09-19T06:35:57;5.93;;;2.45;;
76094;SDS011;64821;13.710;100.604;2023-09-19T06:37:01;5.68;;;2.47;;
76094;SDS011;64821;13.710;100.604;2023-09-19T06:38:05;6.10;;;2.40;;
76094;SDS011;64821;13.710;100.604;2023-09-19T06:39:08;5.13;;;2.20;;
76094;SDS011;64821;13.710;100.604;2023-09-19T06:40:13;5.85;;;2.60;;
76094;SDS011;64821;13.710;100.604;2023-09-19T06:41:17;6.43;;;2.60;;
76094;SDS011;64821;13.710;100.604;2023-09-19T06:42:21;6.68;;;2.50;;
76094;SDS011;64821;13.710;100.604;2023-09-19T06:43:28;6.03;;;2.63;;
76094;SDS011;64821;13.710;100.604;2023-09-19T06:44:32;6.90;;;2.90;;
76094;SDS011;64821;13.710;100.604;2023-09-19T06:45:36;6.53;;;2.83;;
76094;SDS011;64821;13.710;100.604;2023-09-19T06:46:40;5.85;;;2.92;;